Time;durP1;ratioP1;P1;durP2;ratioP2;P2;SDS_P1;SDS_P2;PMS_P1;PMS_P2;Temp;Humidity;BMP_temperature;BMP_pressure;BME280_temperature;BME280_humidity;BME280_pressure;Samples;Min_cycle;Max_cycle;Signal;HPM_P1;HPM_P2
2023/12/31 00:02:03;;;;;;;7.50;2.27;;;;;;;;;;5018240;28;20505;-59
2023/12/31 00:04:28;;;;;;;5.63;2.10;;;;;;;;;;5025741;28;20022;-59
2023/12/31 00:06:53;;;;;;;7.53;1.70;;;;;;;;;;5016285;28;20022;-59
2023/12/31 00:09:18;;;;;;;6.23;1.97;;;;;;;;;;5021581;28;20120;-59
2023/12/31 00:11:44;;;;;;;5.43;2.00;;;;;;;;;;5031405;28;20028;-59
2023/12/31 00:14:09;;;;;;;8.63;2.30;;;;;;;;;;5024236;28;20395;-59
2023/12/31 00:16:34;;;;;;;7.60;2.17;;;;;;;;;;5028559;28;20448;-57
2023/12/31 00:18:59;;;;;;;5.77;2.10;;;;;;;;;;5023766;28;20021;-59
2023/12/31 00:21:25;;;;;;;11.50;2.57;;;;;;;;;;5024876;28;20396;-59
2023/12/31 00:23:50;;;;;;;5.83;1.83;;;;;;;;;;5028466;28;20038;-59
2023/12/31 00:26:15;;;;;;;6.27;1.70;;;;;;;;;;5025999;28;20057;-59
2023/12/31 00:28:40;;;;;;;4.10;1.70;;;;;;;;;;5025877;28;20018;-58
2023/12/31 00:31:06;;;;;;;4.27;1.57;;;;;;;;;;5025154;28;20533;-58
2023/12/31 00:33:32;;;;;;;8.00;1.73;;;;;;;;;;5026338;28;20031;-59
2023/12/31 00:35:57;;;;;;;9.77;2.17;;;;;;;;;;5023752;28;20014;-59
2023/12/31 00:38:23;;;;;;;6.40;1.70;;;;;;;;;;5021470;28;20080;-58
2023/12/31 00:40:48;;;;;;;4.77;1.63;;;;;;;;;;5024556;28;20021;-58
2023/12/31 00:43:13;;;;;;;6.40;1.83;;;;;;;;;;5022693;28;20036;-59
2023/12/31 00:45:38;;;;;;;6.03;1.90;;;;;;;;;;5028441;28;20064;-59
2023/12/31 00:48:04;;;;;;;5.23;1.90;;;;;;;;;;5025293;28;20101;-58
2023/12/31 00:50:29;;;;;;;7.43;1.80;;;;;;;;;;5025072;28;20025;-59
2023/12/31 00:52:54;;;;;;;4.70;1.87;;;;;;;;;;5023380;28;20029;-59
2023/12/31 00:55:20;;;;;;;4.80;1.60;;;;;;;;;;5024072;28;20033;-59
2023/12/31 00:57:45;;;;;;;4.93;2.00;;;;;;;;;;5030086;28;20028;-59
2023/12/31 01:00:10;;;;;;;5.57;1.67;;;;;;;;;;5027506;28;20068;-59
2023/12/31 01:02:36;;;;;;;9.47;2.27;;;;;;;;;;5026837;28;20033;-59
2023/12/31 01:05:01;;;;;;;5.73;1.87;;;;;;;;;;5022672;28;20022;-59
2023/12/31 01:07:26;;;;;;;5.97;1.70;;;;;;;;;;5024917;28;20463;-58
2023/12/31 01:09:51;;;;;;;6.80;1.70;;;;;;;;;;5031083;28;20032;-59
2023/12/31 01:12:17;;;;;;;5.83;1.87;;;;;;;;;;5022049;28;20037;-58
2023/12/31 01:14:42;;;;;;;4.03;1.60;;;;;;;;;;5023548;28;20040;-58
2023/12/31 01:17:08;;;;;;;6.17;1.70;;;;;;;;;;5022439;28;20040;-60
2023/12/31 01:19:34;;;;;;;6.43;1.90;;;;;;;;;;5025012;28;20257;-59
2023/12/31 01:21:59;;;;;;;5.83;1.70;;;;;;;;;;5020715;28;20033;-59
2023/12/31 01:24:24;;;;;;;6.73;1.90;;;;;;;;;;5023646;28;20049;-58
2023/12/31 01:26:50;;;;;;;5.20;1.60;;;;;;;;;;5020739;28;20096;-58
2023/12/31 01:29:15;;;;;;;6.93;1.73;;;;;;;;;;5021595;28;20509;-59
2023/12/31 01:31:40;;;;;;;4.17;1.60;;;;;;;;;;5022839;28;20052;-58
2023/12/31 01:34:06;;;;;;;4.37;1.33;;;;;;;;;;5024112;28;20107;-59
2023/12/31 01:36:31;;;;;;;6.33;1.50;;;;;;;;;;5024077;28;20025;-59
2023/12/31 01:38:56;;;;;;;5.43;1.23;;;;;;;;;;5022387;28;20095;-59
2023/12/31 01:41:22;;;;;;;2.90;1.33;;;;;;;;;;5023491;28;20112;-59
2023/12/31 01:43:49;;;;;;;5.60;1.30;;;;;;;;;;5025191;28;20021;-58
2023/12/31 01:46:23;;;;;;;3.93;1.33;;;;;;;;;;5021266;28;20440;-59
2023/12/31 01:48:48;;;;;;;4.37;1.63;;;;;;;;;;5025102;28;20029;-59
2023/12/31 01:51:13;;;;;;;6.20;1.70;;;;;;;;;;5024311;28;20124;-60
2023/12/31 01:53:39;;;;;;;4.57;1.70;;;;;;;;;;5023804;28;20029;-60
2023/12/31 01:56:04;;;;;;;4.13;1.57;;;;;;;;;;5025386;28;20029;-60
2023/12/31 01:58:29;;;;;;;4.67;1.57;;;;;;;;;;5024962;28;20026;-59
2023/12/31 02:00:55;;;;;;;6.20;1.60;;;;;;;;;;5021443;28;20037;-60
2023/12/31 02:03:20;;;;;;;5.23;1.80;;;;;;;;;;5021372;28;20034;-60
2023/12/31 02:05:46;;;;;;;5.60;1.67;;;;;;;;;;5024613;28;20779;-60
2023/12/31 02:08:11;;;;;;;2.50;1.10;;;;;;;;;;5026308;28;20029;-60
2023/12/31 02:10:36;;;;;;;2.80;1.17;;;;;;;;;;5020342;28;20156;-59
2023/12/31 02:13:02;;;;;;;6.63;1.90;;;;;;;;;;5022098;28;20033;-60
2023/12/31 02:15:34;;;;;;;4.93;1.53;;;;;;;;;;5027015;28;20026;-60
2023/12/31 02:18:00;;;;;;;4.37;1.57;;;;;;;;;;5023759;28;20029;-60
2023/12/31 02:20:26;;;;;;;5.77;1.30;;;;;;;;;;5024991;28;20076;-63
2023/12/31 02:22:51;;;;;;;3.20;1.30;;;;;;;;;;5016268;28;20029;-60
2023/12/31 02:25:18;;;;;;;5.27;1.43;;;;;;;;;;5024637;28;20101;-60
2023/12/31 02:27:43;;;;;;;5.00;1.80;;;;;;;;;;5023116;28;20113;-59
2023/12/31 02:30:09;;;;;;;6.57;1.60;;;;;;;;;;5032203;28;20036;-59
2023/12/31 02:32:34;;;;;;;6.03;1.40;;;;;;;;;;5020383;28;20029;-60
2023/12/31 02:34:59;;;;;;;3.63;1.77;;;;;;;;;;5016713;28;20030;-59
2023/12/31 02:37:25;;;;;;;3.47;1.50;;;;;;;;;;5020938;28;20053;-60
2023/12/31 02:39:50;;;;;;;3.63;1.30;;;;;;;;;;5027841;28;20032;-60
2023/12/31 02:42:15;;;;;;;4.80;1.53;;;;;;;;;;5020936;28;20489;-59
2023/12/31 02:44:40;;;;;;;3.03;1.30;;;;;;;;;;5020438;28;20046;-60
2023/12/31 02:47:07;;;;;;;3.20;1.67;;;;;;;;;;5021483;28;20040;-60
2023/12/31 02:49:32;;;;;;;5.30;1.60;;;;;;;;;;5023363;28;20030;-60
2023/12/31 02:51:57;;;;;;;5.07;1.30;;;;;;;;;;5025184;28;20109;-60
2023/12/31 02:54:24;;;;;;;4.67;1.50;;;;;;;;;;5019724;28;20036;-59
2023/12/31 02:56:49;;;;;;;4.27;1.30;;;;;;;;;;5020993;28;20025;-60
2023/12/31 02:59:14;;;;;;;3.13;1.30;;;;;;;;;;5024820;28;20076;-60
2023/12/31 03:01:39;;;;;;;5.77;1.60;;;;;;;;;;5022496;28;20474;-62
2023/12/31 03:04:05;;;;;;;7.37;1.73;;;;;;;;;;5024808;28;20026;-59
2023/12/31 03:06:30;;;;;;;4.10;1.30;;;;;;;;;;5022421;28;20030;-60
2023/12/31 03:08:58;;;;;;;4.10;1.37;;;;;;;;;;5022180;28;20031;-60
2023/12/31 03:11:24;;;;;;;4.80;1.50;;;;;;;;;;5020618;28;20195;-60
2023/12/31 03:13:49;;;;;;;3.27;1.43;;;;;;;;;;5019472;28;20040;-59
2023/12/31 03:16:14;;;;;;;3.43;1.33;;;;;;;;;;5023167;28;20052;-60
2023/12/31 03:18:40;;;;;;;5.00;1.70;;;;;;;;;;5019501;28;20025;-60
2023/12/31 03:21:05;;;;;;;4.30;1.40;;;;;;;;;;5016475;28;20049;-60
2023/12/31 03:23:30;;;;;;;3.43;1.27;;;;;;;;;;5017452;28;20113;-59
2023/12/31 03:25:56;;;;;;;3.20;1.30;;;;;;;;;;5027336;28;20069;-60
2023/12/31 03:28:21;;;;;;;4.73;1.40;;;;;;;;;;5024519;28;20033;-60
2023/12/31 03:30:46;;;;;;;3.37;1.20;;;;;;;;;;5016334;28;20041;-60
2023/12/31 03:33:12;;;;;;;3.60;1.27;;;;;;;;;;5015543;28;20029;-60
2023/12/31 03:35:37;;;;;;;4.20;1.40;;;;;;;;;;5014511;28;20514;-60
2023/12/31 03:38:02;;;;;;;5.87;1.60;;;;;;;;;;5019965;28;20033;-60
2023/12/31 03:40:27;;;;;;;6.43;1.43;;;;;;;;;;5024184;28;20087;-59
2023/12/31 03:42:53;;;;;;;2.63;0.87;;;;;;;;;;5016669;28;20030;-60
2023/12/31 03:45:18;;;;;;;4.23;1.17;;;;;;;;;;5023935;28;20542;-59
2023/12/31 03:47:43;;;;;;;3.97;1.40;;;;;;;;;;5026784;28;20375;-60
2023/12/31 03:50:09;;;;;;;4.00;1.40;;;;;;;;;;5027650;28;20026;-59
2023/12/31 03:52:34;;;;;;;2.67;0.87;;;;;;;;;;5020622;28;20033;-60
2023/12/31 03:54:59;;;;;;;4.67;1.90;;;;;;;;;;5024369;28;20557;-59
2023/12/31 03:57:25;;;;;;;2.60;1.17;;;;;;;;;;5028167;28;20491;-59
2023/12/31 03:59:50;;;;;;;3.53;1.27;;;;;;;;;;5029759;28;20030;-60
2023/12/31 04:02:18;;;;;;;5.80;1.43;;;;;;;;;;5024867;28;20049;-60
2023/12/31 04:04:43;;;;;;;3.90;1.50;;;;;;;;;;5023693;28;20554;-59
2023/12/31 04:07:10;;;;;;;3.07;1.20;;;;;;;;;;5027530;28;20064;-59
2023/12/31 04:09:35;;;;;;;4.73;1.50;;;;;;;;;;5026254;28;20116;-59
2023/12/31 04:12:01;;;;;;;4.20;1.10;;;;;;;;;;5025428;28;20164;-59
2023/12/31 04:14:26;;;;;;;4.80;1.67;;;;;;;;;;5025838;28;20043;-59
2023/12/31 04:16:51;;;;;;;3.13;1.40;;;;;;;;;;5025519;28;20387;-60
2023/12/31 04:19:16;;;;;;;4.33;1.77;;;;;;;;;;5022835;28;20021;-59
2023/12/31 04:21:42;;;;;;;5.33;1.50;;;;;;;;;;5027840;28;20044;-59
2023/12/31 04:24:07;;;;;;;3.00;1.50;;;;;;;;;;5028978;28;20038;-59
2023/12/31 04:26:32;;;;;;;4.30;1.43;;;;;;;;;;5026897;28;20067;-60
2023/12/31 04:28:58;;;;;;;5.13;1.67;;;;;;;;;;5022964;28;20109;-59
2023/12/31 04:31:23;;;;;;;5.10;1.60;;;;;;;;;;5023191;28;20033;-59
2023/12/31 04:33:48;;;;;;;4.67;1.90;;;;;;;;;;5025543;28;20108;-60
2023/12/31 04:36:14;;;;;;;5.23;1.70;;;;;;;;;;5030600;28;20554;-59
2023/12/31 04:38:39;;;;;;;3.23;1.50;;;;;;;;;;5023046;28;20073;-59
2023/12/31 04:41:05;;;;;;;5.43;1.70;;;;;;;;;;5024622;28;20029;-59
2023/12/31 04:43:31;;;;;;;4.23;1.73;;;;;;;;;;5023906;28;20116;-59
2023/12/31 04:45:56;;;;;;;4.57;1.43;;;;;;;;;;5025468;28;20554;-59
2023/12/31 04:48:21;;;;;;;4.20;1.37;;;;;;;;;;5024463;28;20040;-60
2023/12/31 04:50:46;;;;;;;6.20;1.90;;;;;;;;;;5025732;28;20064;-59
2023/12/31 04:53:12;;;;;;;4.93;1.90;;;;;;;;;;5018700;28;20497;-62
2023/12/31 04:55:37;;;;;;;4.70;1.63;;;;;;;;;;5024829;28;20030;-59
2023/12/31 04:58:02;;;;;;;4.80;2.00;;;;;;;;;;5034328;28;20022;-57
2023/12/31 05:00:27;;;;;;;3.50;1.80;;;;;;;;;;5027638;28;20391;-59
2023/12/31 05:02:53;;;;;;;5.30;1.90;;;;;;;;;;5020613;28;20025;-59
2023/12/31 05:05:18;;;;;;;4.90;1.70;;;;;;;;;;5024789;28;20382;-59
2023/12/31 05:07:43;;;;;;;5.30;2.07;;;;;;;;;;5027049;28;20836;-59
2023/12/31 05:10:09;;;;;;;5.93;1.87;;;;;;;;;;5024609;28;20034;-60
2023/12/31 05:12:34;;;;;;;5.80;1.97;;;;;;;;;;5022568;28;20108;-59
2023/12/31 05:14:59;;;;;;;4.53;2.13;;;;;;;;;;5024670;28;20025;-59
2023/12/31 05:17:25;;;;;;;7.10;2.00;;;;;;;;;;5024932;28;20363;-60
2023/12/31 05:19:52;;;;;;;3.80;1.93;;;;;;;;;;5021987;28;20048;-59
2023/12/31 05:22:17;;;;;;;4.90;2.37;;;;;;;;;;5024449;28;20021;-56
2023/12/31 05:24:42;;;;;;;5.73;1.77;;;;;;;;;;5024534;28;20497;-59
2023/12/31 05:27:08;;;;;;;5.50;2.33;;;;;;;;;;5022982;28;20065;-59
2023/12/31 05:29:33;;;;;;;5.67;2.40;;;;;;;;;;5025600;28;20032;-58
2023/12/31 05:31:58;;;;;;;4.63;1.70;;;;;;;;;;5027513;28;20033;-60
2023/12/31 05:34:24;;;;;;;5.87;1.83;;;;;;;;;;5024838;28;20034;-58
2023/12/31 05:36:49;;;;;;;4.73;1.90;;;;;;;;;;5020797;28;20029;-58
2023/12/31 05:39:14;;;;;;;9.10;1.93;;;;;;;;;;5022096;28;20025;-59
2023/12/31 05:41:39;;;;;;;3.17;1.73;;;;;;;;;;5022969;28;20014;-57
2023/12/31 05:44:05;;;;;;;7.20;2.20;;;;;;;;;;5027796;28;20415;-58
2023/12/31 05:46:30;;;;;;;8.03;1.90;;;;;;;;;;5027340;28;20029;-58
2023/12/31 05:48:55;;;;;;;3.50;1.50;;;;;;;;;;5020569;28;20429;-59
2023/12/31 05:51:21;;;;;;;4.90;1.67;;;;;;;;;;5018040;28;20129;-58
2023/12/31 05:53:46;;;;;;;8.80;2.00;;;;;;;;;;5021236;28;20386;-58
2023/12/31 05:56:11;;;;;;;5.40;1.80;;;;;;;;;;5023351;28;20036;-59
2023/12/31 05:58:37;;;;;;;6.13;2.13;;;;;;;;;;5021751;28;20131;-58
2023/12/31 06:01:02;;;;;;;4.13;1.50;;;;;;;;;;5022951;28;20021;-58
2023/12/31 06:03:28;;;;;;;6.00;2.10;;;;;;;;;;5022386;28;20473;-59
2023/12/31 06:05:53;;;;;;;3.43;1.70;;;;;;;;;;5027507;28;20120;-58
2023/12/31 06:08:18;;;;;;;4.50;1.90;;;;;;;;;;5020083;28;20042;-59
2023/12/31 06:10:43;;;;;;;4.73;2.13;;;;;;;;;;5017158;28;20029;-59
2023/12/31 06:13:08;;;;;;;4.07;1.93;;;;;;;;;;5022381;28;20033;-62
2023/12/31 06:15:34;;;;;;;3.73;1.87;;;;;;;;;;5024475;28;20033;-61
2023/12/31 06:17:59;;;;;;;3.33;1.67;;;;;;;;;;5021931;28;20421;-62
2023/12/31 06:20:24;;;;;;;6.43;1.37;;;;;;;;;;5020930;28;20037;-62
2023/12/31 06:22:50;;;;;;;6.13;2.07;;;;;;;;;;5027923;28;20033;-62
2023/12/31 06:25:15;;;;;;;6.00;2.50;;;;;;;;;;5021739;28;20054;-65
2023/12/31 06:27:40;;;;;;;4.90;1.70;;;;;;;;;;5019966;28;20037;-62
2023/12/31 06:30:06;;;;;;;5.63;2.13;;;;;;;;;;5011959;28;20037;-62
2023/12/31 06:32:31;;;;;;;6.77;2.37;;;;;;;;;;5022224;28;20029;-62
2023/12/31 06:34:57;;;;;;;3.63;1.60;;;;;;;;;;5022349;28;20022;-64
2023/12/31 06:37:22;;;;;;;4.40;1.90;;;;;;;;;;5025116;28;20505;-63
2023/12/31 06:39:47;;;;;;;4.63;1.60;;;;;;;;;;5020452;28;20402;-63
2023/12/31 06:42:12;;;;;;;3.57;1.50;;;;;;;;;;5025344;28;20033;-63
2023/12/31 06:44:38;;;;;;;3.60;1.90;;;;;;;;;;5021787;28;20032;-62
2023/12/31 06:47:03;;;;;;;5.80;2.40;;;;;;;;;;5021425;28;20115;-63
2023/12/31 06:49:28;;;;;;;4.30;2.27;;;;;;;;;;5020828;28;20438;-63
2023/12/31 06:51:54;;;;;;;5.77;1.77;;;;;;;;;;5032372;28;20086;-66
2023/12/31 06:54:19;;;;;;;4.63;2.50;;;;;;;;;;5022053;28;20036;-62
2023/12/31 06:56:44;;;;;;;5.70;2.50;;;;;;;;;;5021627;28;20017;-62
2023/12/31 06:59:09;;;;;;;6.03;2.40;;;;;;;;;;5018007;28;20116;-63
2023/12/31 07:01:35;;;;;;;4.57;1.43;;;;;;;;;;5022413;28;20030;-63
2023/12/31 07:04:00;;;;;;;4.03;1.80;;;;;;;;;;5019299;28;20466;-63
2023/12/31 07:06:26;;;;;;;5.73;1.93;;;;;;;;;;5025108;28;20021;-63
2023/12/31 07:08:51;;;;;;;5.17;2.60;;;;;;;;;;5018972;28;20075;-67
2023/12/31 07:11:16;;;;;;;4.40;2.17;;;;;;;;;;5017440;28;20034;-62
2023/12/31 07:13:42;;;;;;;6.13;2.47;;;;;;;;;;5024463;28;20116;-62
2023/12/31 07:16:07;;;;;;;7.77;2.23;;;;;;;;;;5022887;28;20025;-64
2023/12/31 07:18:33;;;;;;;5.83;2.27;;;;;;;;;;5024464;28;20502;-63
2023/12/31 07:20:58;;;;;;;4.17;1.53;;;;;;;;;;5023042;28;20458;-63
2023/12/31 07:23:24;;;;;;;4.17;2.10;;;;;;;;;;5034422;28;20116;-62
2023/12/31 07:25:49;;;;;;;5.53;2.30;;;;;;;;;;5029609;28;20533;-62
2023/12/31 07:28:14;;;;;;;4.67;2.30;;;;;;;;;;5025962;28;20025;-62
2023/12/31 07:30:39;;;;;;;3.93;1.63;;;;;;;;;;5028956;28;20035;-62
2023/12/31 07:33:05;;;;;;;8.60;3.17;;;;;;;;;;5033650;28;20134;-62
2023/12/31 07:35:34;;;;;;;5.40;2.60;;;;;;;;;;5032713;28;20393;-62
2023/12/31 07:38:00;;;;;;;5.33;2.50;;;;;;;;;;5027429;28;20113;-62
2023/12/31 07:40:25;;;;;;;4.27;2.13;;;;;;;;;;5027878;28;20445;-62
2023/12/31 07:42:50;;;;;;;7.23;3.00;;;;;;;;;;5028480;28;20030;-62
2023/12/31 07:45:16;;;;;;;4.20;2.00;;;;;;;;;;5025935;28;20030;-62
2023/12/31 07:47:42;;;;;;;5.83;2.63;;;;;;;;;;5033250;28;20385;-62
2023/12/31 07:50:08;;;;;;;5.83;2.83;;;;;;;;;;5027709;28;20061;-62
2023/12/31 07:52:33;;;;;;;4.83;2.30;;;;;;;;;;5028792;28;20049;-62
2023/12/31 07:54:58;;;;;;;6.23;2.67;;;;;;;;;;5026142;28;20040;-62
2023/12/31 07:57:23;;;;;;;6.47;2.47;;;;;;;;;;5026275;28;20039;-62
2023/12/31 07:59:49;;;;;;;4.53;2.10;;;;;;;;;;5030644;28;20033;-63
2023/12/31 08:02:14;;;;;;;5.43;2.43;;;;;;;;;;5030038;28;20026;-62
2023/12/31 08:04:39;;;;;;;8.07;2.10;;;;;;;;;;5023325;28;20025;-62
2023/12/31 08:07:04;;;;;;;2.57;1.43;;;;;;;;;;5024204;28;20061;-62
2023/12/31 08:09:30;;;;;;;5.83;2.37;;;;;;;;;;5023404;28;20030;-63
2023/12/31 08:11:55;;;;;;;5.20;2.17;;;;;;;;;;5025626;28;20091;-62
2023/12/31 08:14:21;;;;;;;4.00;1.93;;;;;;;;;;5017042;28;20761;-63
2023/12/31 08:16:46;;;;;;;5.73;1.77;;;;;;;;;;5026935;28;20022;-62
2023/12/31 08:19:11;;;;;;;3.80;1.50;;;;;;;;;;5028518;28;20033;-62
2023/12/31 08:21:37;;;;;;;3.40;1.40;;;;;;;;;;5028184;28;20029;-62
2023/12/31 08:24:03;;;;;;;3.77;1.77;;;;;;;;;;5033298;28;20090;-62
2023/12/31 08:26:28;;;;;;;5.17;1.67;;;;;;;;;;5030460;28;20057;-63
2023/12/31 08:28:53;;;;;;;3.93;1.97;;;;;;;;;;5026799;28;20029;-62
2023/12/31 08:31:18;;;;;;;3.17;1.60;;;;;;;;;;5030090;28;20163;-62
2023/12/31 08:33:44;;;;;;;1.50;0.90;;;;;;;;;;5025289;28;20040;-63
2023/12/31 08:36:09;;;;;;;2.93;1.47;;;;;;;;;;5027385;28;20578;-62
2023/12/31 08:38:34;;;;;;;4.70;1.93;;;;;;;;;;5024899;28;20029;-62
2023/12/31 08:40:59;;;;;;;4.40;1.70;;;;;;;;;;5026318;28;20156;-62
2023/12/31 08:43:25;;;;;;;2.20;1.10;;;;;;;;;;5026816;28;20124;-62
2023/12/31 08:45:51;;;;;;;3.40;1.40;;;;;;;;;;5029441;28;20036;-62
2023/12/31 08:48:17;;;;;;;3.70;1.40;;;;;;;;;;5026817;28;20036;-62
2023/12/31 08:50:43;;;;;;;6.33;2.00;;;;;;;;;;5024949;28;20614;-62
2023/12/31 08:53:08;;;;;;;4.13;1.63;;;;;;;;;;5027973;28;20037;-62
2023/12/31 08:55:34;;;;;;;3.20;1.30;;;;;;;;;;5027004;28;20039;-62
2023/12/31 08:57:59;;;;;;;4.67;1.90;;;;;;;;;;5023882;28;20026;-62
2023/12/31 09:00:24;;;;;;;4.43;1.77;;;;;;;;;;5026416;28;20025;-62
2023/12/31 09:02:50;;;;;;;3.67;1.20;;;;;;;;;;5030513;28;20504;-64
2023/12/31 09:05:15;;;;;;;4.87;1.40;;;;;;;;;;5023035;28;20041;-62
2023/12/31 09:07:40;;;;;;;3.67;1.53;;;;;;;;;;5024698;28;20026;-62
2023/12/31 09:10:06;;;;;;;4.50;1.30;;;;;;;;;;5022102;28;20112;-62
2023/12/31 09:12:32;;;;;;;3.70;1.60;;;;;;;;;;5023773;28;20137;-62
2023/12/31 09:14:57;;;;;;;3.60;1.10;;;;;;;;;;5020854;28;20481;-62
2023/12/31 09:17:23;;;;;;;3.40;1.63;;;;;;;;;;5020120;28;20365;-62
2023/12/31 09:19:48;;;;;;;4.27;1.53;;;;;;;;;;5025740;28;20378;-62
2023/12/31 09:22:13;;;;;;;2.60;1.27;;;;;;;;;;5023663;28;20033;-62
2023/12/31 09:24:39;;;;;;;4.17;1.30;;;;;;;;;;5024935;28;20044;-62
2023/12/31 09:27:07;;;;;;;3.23;1.30;;;;;;;;;;5021211;28;20069;-62
2023/12/31 09:29:32;;;;;;;4.50;1.50;;;;;;;;;;5022000;28;20036;-62
2023/12/31 09:31:58;;;;;;;2.37;0.93;;;;;;;;;;5026245;28;20034;-63
2023/12/31 09:34:23;;;;;;;3.07;1.33;;;;;;;;;;5020193;28;20041;-62
2023/12/31 09:36:50;;;;;;;1.40;0.83;;;;;;;;;;5018055;28;20024;-62
2023/12/31 09:39:15;;;;;;;3.97;1.53;;;;;;;;;;5020184;28;20035;-62
2023/12/31 09:41:41;;;;;;;2.93;1.17;;;;;;;;;;5023429;28;20022;-62
2023/12/31 09:44:07;;;;;;;3.80;1.40;;;;;;;;;;5016154;28;20052;-62
2023/12/31 09:46:34;;;;;;;2.80;1.30;;;;;;;;;;5019751;28;20029;-62
2023/12/31 09:48:59;;;;;;;2.27;1.00;;;;;;;;;;5022513;28;20060;-62
2023/12/31 09:51:25;;;;;;;3.33;1.57;;;;;;;;;;5026778;28;20557;-62
2023/12/31 09:53:54;;;;;;;3.10;1.20;;;;;;;;;;5022345;28;20030;-62
2023/12/31 09:56:22;;;;;;;4.00;1.60;;;;;;;;;;5024409;28;20120;-62
2023/12/31 09:58:50;;;;;;;3.47;1.60;;;;;;;;;;5018142;28;20033;-63
2023/12/31 10:01:16;;;;;;;2.93;1.43;;;;;;;;;;5020430;28;20068;-62
2023/12/31 10:03:44;;;;;;;2.13;1.00;;;;;;;;;;5022515;28;20435;-62
2023/12/31 10:06:10;;;;;;;2.73;1.30;;;;;;;;;;5021283;28;20040;-62
2023/12/31 10:08:36;;;;;;;2.30;1.10;;;;;;;;;;5022078;28;20030;-62
2023/12/31 10:11:02;;;;;;;3.03;1.47;;;;;;;;;;5019147;28;20033;-62
2023/12/31 10:13:28;;;;;;;3.27;1.40;;;;;;;;;;5020394;28;20504;-63
2023/12/31 10:15:54;;;;;;;2.43;1.23;;;;;;;;;;5026529;28;20022;-63
2023/12/31 10:18:19;;;;;;;2.90;1.60;;;;;;;;;;5023282;28;20103;-63
2023/12/31 10:20:45;;;;;;;3.20;1.30;;;;;;;;;;5021409;28;20108;-63
2023/12/31 10:23:10;;;;;;;3.70;1.60;;;;;;;;;;5021330;28;20025;-63
2023/12/31 10:25:36;;;;;;;4.43;1.50;;;;;;;;;;5016852;28;20589;-63
2023/12/31 10:28:03;;;;;;;2.70;1.00;;;;;;;;;;5026490;28;20389;-63
2023/12/31 10:30:30;;;;;;;2.40;1.10;;;;;;;;;;5021350;28;20056;-64
2023/12/31 10:33:07;;;;;;;3.93;2.00;;;;;;;;;;5025612;28;20025;-62
2023/12/31 10:35:32;;;;;;;2.83;1.33;;;;;;;;;;5024401;28;20441;-62
2023/12/31 10:38:04;;;;;;;3.80;1.50;;;;;;;;;;5025075;28;20052;-63
2023/12/31 10:40:29;;;;;;;3.07;1.53;;;;;;;;;;5010353;28;20746;-62
2023/12/31 10:42:57;;;;;;;5.73;1.70;;;;;;;;;;5025276;28;20035;-62
2023/12/31 10:45:23;;;;;;;4.13;1.87;;;;;;;;;;5018441;28;20028;-62
2023/12/31 10:47:53;;;;;;;3.93;1.20;;;;;;;;;;5022559;28;20026;-62
2023/12/31 10:50:22;;;;;;;5.10;1.80;;;;;;;;;;5019682;28;20041;-63
2023/12/31 10:52:53;;;;;;;4.67;1.37;;;;;;;;;;5021822;28;20375;-62
2023/12/31 10:55:19;;;;;;;4.83;1.97;;;;;;;;;;5023249;28;20402;-62
2023/12/31 10:57:44;;;;;;;3.63;1.50;;;;;;;;;;5023221;28;20025;-62
2023/12/31 11:00:11;;;;;;;3.90;1.80;;;;;;;;;;5021580;28;20040;-63
2023/12/31 11:02:36;;;;;;;4.13;1.27;;;;;;;;;;5021220;28;20022;-62
2023/12/31 11:05:03;;;;;;;4.47;1.60;;;;;;;;;;5018862;28;20033;-62
2023/12/31 11:07:28;;;;;;;4.50;1.73;;;;;;;;;;5020328;28;20037;-62
2023/12/31 11:09:55;;;;;;;2.43;1.17;;;;;;;;;;5023248;28;20048;-62
2023/12/31 11:12:20;;;;;;;3.60;1.70;;;;;;;;;;5020913;28;20040;-62
2023/12/31 11:14:51;;;;;;;2.77;1.00;;;;;;;;;;5021584;28;20034;-63
2023/12/31 11:17:16;;;;;;;3.67;1.23;;;;;;;;;;5021161;28;20048;-62
2023/12/31 11:19:46;;;;;;;3.00;1.33;;;;;;;;;;5022267;28;20025;-62
2023/12/31 11:22:11;;;;;;;3.87;1.67;;;;;;;;;;5021347;28;20049;-63
2023/12/31 11:24:36;;;;;;;4.10;1.63;;;;;;;;;;5024502;28;20469;-62
2023/12/31 11:27:03;;;;;;;3.23;1.70;;;;;;;;;;5022499;28;20509;-62
2023/12/31 11:29:28;;;;;;;4.37;2.03;;;;;;;;;;5019310;28;20076;-62
2023/12/31 11:31:53;;;;;;;3.33;1.40;;;;;;;;;;5022049;28;20443;-62
2023/12/31 11:34:19;;;;;;;5.30;1.93;;;;;;;;;;5019765;28;20036;-62
2023/12/31 11:36:44;;;;;;;3.33;1.77;;;;;;;;;;5024476;28;20033;-62
2023/12/31 11:39:19;;;;;;;3.07;1.53;;;;;;;;;;5023539;28;20026;-62
2023/12/31 11:41:45;;;;;;;4.60;1.90;;;;;;;;;;5023192;28;20037;-62
2023/12/31 11:44:30;;;;;;;3.07;1.50;;;;;;;;;;5021832;28;20037;-62
2023/12/31 11:46:58;;;;;;;4.47;1.93;;;;;;;;;;5018256;28;20024;-62
2023/12/31 11:49:25;;;;;;;3.60;1.70;;;;;;;;;;5018229;28;20068;-62
2023/12/31 11:51:57;;;;;;;4.47;1.80;;;;;;;;;;5019845;28;20033;-62
2023/12/31 11:54:23;;;;;;;3.67;1.50;;;;;;;;;;5003895;28;20484;-62
2023/12/31 11:56:51;;;;;;;3.07;1.20;;;;;;;;;;5024419;28;20024;-62
2023/12/31 11:59:16;;;;;;;4.57;1.57;;;;;;;;;;5023607;28;20448;-62
2023/12/31 12:01:43;;;;;;;4.80;2.07;;;;;;;;;;5018888;28;20101;-62
2023/12/31 12:04:09;;;;;;;5.17;2.00;;;;;;;;;;5016746;28;20037;-63
2023/12/31 12:06:34;;;;;;;3.00;1.33;;;;;;;;;;5022637;28;20119;-62
2023/12/31 12:08:59;;;;;;;3.33;1.63;;;;;;;;;;5025028;28;20030;-63
2023/12/31 12:11:26;;;;;;;7.23;1.93;;;;;;;;;;5022882;28;20026;-62
2023/12/31 12:13:51;;;;;;;3.87;1.97;;;;;;;;;;5023353;28;20037;-62
2023/12/31 12:16:16;;;;;;;5.40;1.80;;;;;;;;;;5022821;28;20500;-62
2023/12/31 12:18:42;;;;;;;4.63;1.80;;;;;;;;;;5024675;28;20026;-63
2023/12/31 12:21:07;;;;;;;5.43;2.10;;;;;;;;;;5030455;28;20036;-63
2023/12/31 12:23:32;;;;;;;3.37;1.67;;;;;;;;;;5027126;28;20128;-62
2023/12/31 12:25:58;;;;;;;5.10;1.80;;;;;;;;;;5023251;28;20668;-62
2023/12/31 12:28:25;;;;;;;4.47;2.00;;;;;;;;;;5023214;28;20044;-62
2023/12/31 12:30:50;;;;;;;3.33;1.63;;;;;;;;;;5022146;28;20443;-62
2023/12/31 12:33:15;;;;;;;4.40;1.63;;;;;;;;;;5024432;28;20049;-62
2023/12/31 12:35:42;;;;;;;4.10;2.10;;;;;;;;;;5023037;28;20030;-62
2023/12/31 12:38:08;;;;;;;4.67;2.20;;;;;;;;;;5021376;28;20053;-62
2023/12/31 12:40:33;;;;;;;6.47;2.57;;;;;;;;;;5019743;28;20030;-62
2023/12/31 12:43:01;;;;;;;5.93;2.47;;;;;;;;;;5000463;28;20040;-62
2023/12/31 12:45:26;;;;;;;4.60;2.20;;;;;;;;;;5026344;28;20029;-63
2023/12/31 12:47:51;;;;;;;5.77;2.63;;;;;;;;;;5021237;28;20477;-62
2023/12/31 12:50:17;;;;;;;5.83;2.30;;;;;;;;;;5017615;28;20762;-62
2023/12/31 12:52:42;;;;;;;5.30;2.20;;;;;;;;;;5027120;28;20029;-62
2023/12/31 12:55:07;;;;;;;4.53;2.50;;;;;;;;;;5028357;28;20063;-62
2023/12/31 12:57:33;;;;;;;4.87;2.30;;;;;;;;;;5034587;28;20032;-63
2023/12/31 12:59:58;;;;;;;4.03;2.03;;;;;;;;;;5016320;28;20104;-62
2023/12/31 13:02:23;;;;;;;4.90;2.50;;;;;;;;;;5015090;28;20030;-62
2023/12/31 13:04:48;;;;;;;4.63;2.20;;;;;;;;;;5027055;28;20025;-62
2023/12/31 13:07:14;;;;;;;6.27;2.67;;;;;;;;;;5024510;28;20037;-62
2023/12/31 13:09:40;;;;;;;4.63;2.40;;;;;;;;;;5019788;28;20064;-62
2023/12/31 13:12:06;;;;;;;3.87;2.00;;;;;;;;;;5019112;28;20132;-62
2023/12/31 13:14:33;;;;;;;5.20;2.80;;;;;;;;;;5025483;28;20470;-62
2023/12/31 13:16:58;;;;;;;4.90;2.27;;;;;;;;;;5029152;28;20016;-62
2023/12/31 13:19:24;;;;;;;7.33;2.60;;;;;;;;;;5023321;28;20099;-62
2023/12/31 13:21:49;;;;;;;5.83;2.73;;;;;;;;;;5019721;28;20027;-63
2023/12/31 13:24:15;;;;;;;5.03;2.60;;;;;;;;;;5022458;28;20117;-62
2023/12/31 13:26:41;;;;;;;5.00;2.50;;;;;;;;;;5024071;28;20057;-62
2023/12/31 13:29:06;;;;;;;4.33;2.30;;;;;;;;;;5020686;28;20049;-62
2023/12/31 13:31:31;;;;;;;4.83;2.27;;;;;;;;;;5021893;28;20418;-63
2023/12/31 13:33:56;;;;;;;5.93;2.40;;;;;;;;;;5001966;28;20075;-62
2023/12/31 13:36:22;;;;;;;4.30;2.00;;;;;;;;;;5022857;28;20069;-62
2023/12/31 13:38:47;;;;;;;2.77;1.40;;;;;;;;;;5020652;28;20036;-62
2023/12/31 13:41:12;;;;;;;2.63;1.10;;;;;;;;;;5018728;28;20437;-62
2023/12/31 13:43:38;;;;;;;2.67;0.93;;;;;;;;;;5023200;28;20033;-62
2023/12/31 13:46:03;;;;;;;2.50;1.10;;;;;;;;;;5024181;28;20041;-62
2023/12/31 13:48:28;;;;;;;3.10;1.10;;;;;;;;;;5022918;28;20128;-62
2023/12/31 13:50:54;;;;;;;3.63;1.13;;;;;;;;;;5025953;28;20037;-62
2023/12/31 13:53:19;;;;;;;2.33;1.10;;;;;;;;;;5025917;28;20112;-62
2023/12/31 13:55:44;;;;;;;2.63;1.20;;;;;;;;;;5023738;28;20489;-62
2023/12/31 13:58:10;;;;;;;2.70;1.20;;;;;;;;;;5023805;28;20076;-61
2023/12/31 14:00:35;;;;;;;2.73;1.20;;;;;;;;;;5018955;28;20030;-64
2023/12/31 14:03:00;;;;;;;2.17;0.90;;;;;;;;;;5024101;28;20033;-62
2023/12/31 14:05:26;;;;;;;3.47;1.10;;;;;;;;;;5026193;28;20040;-62
2023/12/31 14:07:51;;;;;;;2.00;0.90;;;;;;;;;;5020599;28;21722;-62
2023/12/31 14:10:16;;;;;;;2.63;0.90;;;;;;;;;;5021945;28;20065;-62
2023/12/31 14:12:41;;;;;;;1.87;0.80;;;;;;;;;;5009168;28;20041;-62
2023/12/31 14:15:07;;;;;;;2.37;0.97;;;;;;;;;;5018649;28;20037;-62
2023/12/31 14:17:32;;;;;;;3.10;0.83;;;;;;;;;;5021898;28;20094;-62
2023/12/31 14:19:57;;;;;;;4.17;0.90;;;;;;;;;;5024553;28;20417;-62
2023/12/31 14:22:23;;;;;;;1.77;0.90;;;;;;;;;;5022802;28;20095;-61
2023/12/31 14:24:48;;;;;;;1.97;0.80;;;;;;;;;;5023745;28;20029;-62
2023/12/31 14:27:13;;;;;;;3.17;0.87;;;;;;;;;;5018181;28;20165;-62
2023/12/31 14:29:39;;;;;;;1.47;0.70;;;;;;;;;;5021250;28;20037;-61
2023/12/31 14:32:04;;;;;;;2.47;0.80;;;;;;;;;;5018162;28;20042;-62
2023/12/31 14:34:29;;;;;;;1.67;0.60;;;;;;;;;;5018650;28;20125;-62